createdAt,value
2017-01-31T00:00:21.902Z,22.51
2017-01-31T00:00:50.801Z,22.47
2017-01-31T00:01:18.678Z,22.49
2017-01-31T00:01:47.430Z,22.45
2017-01-31T00:02:15.495Z,22.45
2017-01-31T00:02:43.610Z,22.42
2017-01-31T00:03:11.591Z,22.51
2017-01-31T00:03:39.491Z,22.37
2017-01-31T00:04:07.640Z,22.35
2017-01-31T00:04:35.785Z,22.35
2017-01-31T00:05:03.806Z,22.33
2017-01-31T00:05:31.698Z,22.3
2017-01-31T00:05:59.506Z,22.37
2017-01-31T00:06:27.651Z,22.39
2017-01-31T00:06:56.540Z,22.35
2017-01-31T00:07:24.601Z,22.39
2017-01-31T00:07:52.676Z,22.37
2017-01-31T00:08:21.102Z,22.35
2017-01-31T00:08:49.100Z,22.27
2017-01-31T00:09:17.078Z,22.31
2017-01-31T00:09:45.098Z,22.33
2017-01-31T00:10:13.063Z,22.46
2017-01-31T00:11:19.434Z,22.46
2017-01-31T00:11:47.239Z,22.4
2017-01-31T00:12:15.315Z,22.39
2017-01-31T00:12:44.192Z,22.33
2017-01-31T00:13:12.121Z,22.33
2017-01-31T00:13:40.030Z,22.37
2017-01-31T00:14:08.041Z,22.3
2017-01-31T00:14:36.123Z,22.31
2017-01-31T00:15:04.169Z,22.37
2017-01-31T00:15:32.222Z,22.33
2017-01-31T00:16:00.126Z,22.3
2017-01-31T00:16:29.007Z,22.27
2017-01-31T00:16:57.013Z,22.28
2017-01-31T00:17:24.980Z,22.31
2017-01-31T00:17:53.031Z,22.24
2017-01-31T00:18:21.137Z,22.3
2017-01-31T00:18:49.978Z,22.3
2017-01-31T00:19:18.185Z,22.31
2017-01-31T00:19:46.082Z,22.36
2017-01-31T00:20:14.136Z,22.36
2017-01-31T00:20:43.008Z,22.28
2017-01-31T00:21:10.990Z,22.35
2017-01-31T00:21:38.975Z,22.35
2017-01-31T00:22:07.657Z,22.36
2017-01-31T00:22:36.409Z,22.36
2017-01-31T00:23:04.505Z,22.31
2017-01-31T00:23:32.607Z,22.33
2017-01-31T00:24:01.470Z,22.3
2017-01-31T00:24:30.257Z,22.33
2017-01-31T00:24:58.231Z,22.33
2017-01-31T00:25:26.227Z,22.36
2017-01-31T00:25:55.087Z,22.37
2017-01-31T00:26:22.971Z,22.39
2017-01-31T00:26:51.884Z,22.36
2017-01-31T00:27:20.630Z,22.33
2017-01-31T00:27:48.744Z,22.3
2017-01-31T00:28:16.722Z,22.31
2017-01-31T00:28:44.791Z,22.37
2017-01-31T00:29:12.836Z,22.31
2017-01-31T00:29:41.704Z,22.36
2017-01-31T00:30:10.555Z,22.36
2017-01-31T00:30:38.500Z,22.31
2017-01-31T00:31:06.291Z,22.27
2017-01-31T00:31:35.819Z,22.31
2017-01-31T00:32:03.813Z,22.39
2017-01-31T00:32:31.786Z,22.33
2017-01-31T00:32:59.570Z,22.36
2017-01-31T00:33:27.702Z,22.36
2017-01-31T00:33:55.570Z,22.45
2017-01-31T00:34:23.369Z,22.4
2017-01-31T00:34:51.429Z,22.31
2017-01-31T00:35:19.457Z,22.42
2017-01-31T00:35:47.488Z,22.37
2017-01-31T00:36:15.295Z,22.37
2017-01-31T00:36:44.858Z,22.35
2017-01-31T00:37:13.761Z,22.3
2017-01-31T00:37:42.530Z,22.31
2017-01-31T00:38:10.656Z,22.3
2017-01-31T00:38:38.584Z,22.25
2017-01-31T00:39:07.097Z,22.33
2017-01-31T00:39:35.062Z,22.31
2017-01-31T00:40:03.049Z,22.35
2017-01-31T00:40:30.963Z,22.39
2017-01-31T00:40:59.702Z,22.33
2017-01-31T00:41:28.588Z,22.36
2017-01-31T00:41:56.666Z,22.3
2017-01-31T00:42:25.421Z,22.37
2017-01-31T00:42:53.522Z,22.36
2017-01-31T00:43:21.314Z,22.35
2017-01-31T00:43:49.306Z,22.33
2017-01-31T00:44:18.241Z,22.37
2017-01-31T00:44:46.222Z,22.31
2017-01-31T00:45:14.081Z,22.3
2017-01-31T00:45:42.140Z,22.3
2017-01-31T00:46:10.115Z,22.35
2017-01-31T00:46:38.179Z,22.37
2017-01-31T00:47:06.253Z,22.36
2017-01-31T00:47:34.113Z,22.37
2017-01-31T00:48:02.068Z,22.3
2017-01-31T00:48:30.935Z,22.3
2017-01-31T00:48:59.054Z,22.31
2017-01-31T00:49:27.228Z,22.31
2017-01-31T00:50:34.356Z,22.31
2017-01-31T00:51:02.340Z,22.27
2017-01-31T00:51:31.975Z,22.33
2017-01-31T00:52:00.740Z,22.33
2017-01-31T00:52:29.537Z,22.28
2017-01-31T00:52:57.615Z,22.35
2017-01-31T00:53:25.416Z,22.3
2017-01-31T00:53:53.318Z,22.33
2017-01-31T00:54:21.304Z,22.31
2017-01-31T00:54:49.448Z,22.31
2017-01-31T00:55:17.391Z,22.3
2017-01-31T00:55:45.322Z,22.31
2017-01-31T00:56:13.312Z,22.31
2017-01-31T00:56:42.196Z,22.3
2017-01-31T00:57:10.089Z,22.35
2017-01-31T00:57:38.050Z,22.31
2017-01-31T00:58:06.067Z,22.33
2017-01-31T00:58:34.824Z,22.36
2017-01-31T00:59:04.328Z,22.35
2017-01-31T00:59:32.571Z,22.36
2017-01-31T01:00:00.477Z,22.39
2017-01-31T01:00:28.364Z,22.33
2017-01-31T01:00:56.352Z,22.24
2017-01-31T01:01:24.247Z,22.28
2017-01-31T01:01:52.295Z,22.3
2017-01-31T01:02:20.210Z,22.3
2017-01-31T01:02:48.239Z,22.3
2017-01-31T01:03:16.990Z,22.4
2017-01-31T01:03:45.770Z,22.36
2017-01-31T01:04:13.649Z,22.4
2017-01-31T01:04:41.775Z,22.43
2017-01-31T01:05:09.748Z,22.49
2017-01-31T01:05:37.615Z,22.37
2017-01-31T01:06:05.373Z,22.43
2017-01-31T01:06:33.060Z,22.43
2017-01-31T01:07:01.643Z,22.39
2017-01-31T01:07:29.419Z,22.46
2017-01-31T01:07:57.300Z,22.47
2017-01-31T01:08:25.151Z,22.4
2017-01-31T01:08:52.959Z,22.4
2017-01-31T01:09:20.931Z,22.35
2017-01-31T01:09:49.749Z,22.42
2017-01-31T01:10:17.715Z,22.36
2017-01-31T01:10:45.659Z,22.35
2017-01-31T01:11:13.372Z,22.36
2017-01-31T01:11:41.243Z,22.31
2017-01-31T01:12:09.101Z,22.35
2017-01-31T01:12:36.951Z,22.31
2017-01-31T01:13:04.803Z,22.39
2017-01-31T01:13:32.760Z,22.36
2017-01-31T01:14:01.418Z,22.36
2017-01-31T01:14:29.430Z,22.42
2017-01-31T01:14:58.345Z,22.42
2017-01-31T01:15:26.408Z,22.36
2017-01-31T01:15:54.390Z,22.39
2017-01-31T01:16:22.396Z,22.39
2017-01-31T01:16:51.160Z,22.33
2017-01-31T01:17:18.920Z,22.3
2017-01-31T01:17:47.727Z,22.31
2017-01-31T01:18:15.720Z,22.31
2017-01-31T01:18:43.591Z,22.31
2017-01-31T01:19:11.562Z,22.3
2017-01-31T01:19:39.697Z,22.24
2017-01-31T01:20:08.430Z,22.3
2017-01-31T01:20:36.162Z,22.33
2017-01-31T01:21:04.843Z,22.39
2017-01-31T01:21:32.779Z,22.31
2017-01-31T01:22:00.709Z,22.28
2017-01-31T01:22:28.484Z,22.27
2017-01-31T01:22:57.083Z,22.35
2017-01-31T01:23:24.984Z,22.35
2017-01-31T01:23:52.955Z,22.27
2017-01-31T01:24:20.801Z,22.33
2017-01-31T01:24:48.763Z,22.31
2017-01-31T01:25:16.723Z,22.33
2017-01-31T01:25:44.410Z,22.37
2017-01-31T01:26:12.292Z,22.31
2017-01-31T01:26:40.226Z,22.3
2017-01-31T01:27:09.896Z,22.28
2017-01-31T01:27:37.790Z,22.37
2017-01-31T01:28:05.771Z,22.36
2017-01-31T01:28:33.775Z,22.39
2017-01-31T01:29:39.950Z,22.43
2017-01-31T01:30:07.742Z,22.31
2017-01-31T01:30:35.616Z,22.35
2017-01-31T01:31:03.489Z,22.36
2017-01-31T01:31:31.418Z,22.35
2017-01-31T01:32:00.870Z,22.31
2017-01-31T01:32:29.656Z,22.39
2017-01-31T01:32:59.106Z,22.31
2017-01-31T01:33:27.801Z,22.33
2017-01-31T01:33:55.775Z,22.27
2017-01-31T01:34:24.590Z,22.33
2017-01-31T01:34:52.517Z,22.36
2017-01-31T01:35:21.285Z,22.31
2017-01-31T01:35:49.985Z,22.31
2017-01-31T01:36:17.777Z,22.31
2017-01-31T01:36:45.628Z,22.31
2017-01-31T01:37:13.532Z,22.33
2017-01-31T01:37:42.185Z,22.28
2017-01-31T01:38:09.981Z,22.33
2017-01-31T01:38:37.931Z,22.33
2017-01-31T01:39:05.743Z,22.35
2017-01-31T01:39:33.619Z,22.35
2017-01-31T01:40:02.293Z,22.28
2017-01-31T01:40:30.174Z,22.27
2017-01-31T01:40:58.022Z,22.33
2017-01-31T01:41:26.014Z,22.35
2017-01-31T01:41:54.621Z,22.25
2017-01-31T01:42:22.418Z,22.28
2017-01-31T01:42:51.107Z,22.3
2017-01-31T01:43:19.783Z,22.35
2017-01-31T01:43:47.664Z,22.21
2017-01-31T01:44:15.640Z,22.2
2017-01-31T01:44:43.596Z,22.25
2017-01-31T01:45:11.622Z,22.33
2017-01-31T01:45:39.492Z,22.24
2017-01-31T01:46:07.281Z,22.22
2017-01-31T01:46:35.204Z,22.24
2017-01-31T01:47:02.999Z,22.25
2017-01-31T01:47:30.675Z,22.21
2017-01-31T01:47:58.565Z,22.21
2017-01-31T01:48:27.318Z,22.28
2017-01-31T01:48:56.034Z,22.21
2017-01-31T01:49:23.817Z,22.24
2017-01-31T01:49:51.585Z,22.17
2017-01-31T01:50:21.252Z,22.21
2017-01-31T01:50:50.019Z,22.2
2017-01-31T01:51:17.888Z,22.21
2017-01-31T01:51:45.919Z,22.2
2017-01-31T01:52:13.857Z,22.28
2017-01-31T01:52:41.538Z,22.12
2017-01-31T01:53:09.406Z,22.14
2017-01-31T01:53:37.412Z,22.14
2017-01-31T01:54:05.346Z,22.1
2017-01-31T01:54:33.136Z,22.14
2017-01-31T01:55:00.983Z,22.14
2017-01-31T01:55:29.742Z,22.18
2017-01-31T01:55:58.413Z,22.21
2017-01-31T01:56:26.428Z,22.18
2017-01-31T01:56:54.428Z,22.18
2017-01-31T01:57:22.418Z,22.15
2017-01-31T01:57:50.106Z,22.14
2017-01-31T01:58:18.508Z,22.14
2017-01-31T01:58:46.412Z,22.09
2017-01-31T01:59:15.140Z,22.15
2017-01-31T01:59:43.057Z,22.2
2017-01-31T02:00:11.035Z,22.14
2017-01-31T02:00:39.058Z,22.2
2017-01-31T02:01:07.093Z,22.21
2017-01-31T02:01:34.945Z,22.17
2017-01-31T02:02:02.926Z,22.15
2017-01-31T02:02:30.830Z,22.24
2017-01-31T02:02:58.615Z,22.18
2017-01-31T02:03:26.460Z,22.15
2017-01-31T02:03:54.239Z,22.18
2017-01-31T02:04:22.197Z,22.2
2017-01-31T02:04:50.063Z,22.17
2017-01-31T02:05:18.202Z,22.14
2017-01-31T02:05:46.136Z,22.15
2017-01-31T02:06:14.082Z,22.21
2017-01-31T02:06:42.067Z,22.14
2017-01-31T02:07:09.863Z,22.15
2017-01-31T02:07:37.775Z,22.24
2017-01-31T02:08:44.039Z,22.18
2017-01-31T02:09:11.833Z,22.2
2017-01-31T02:09:39.799Z,22.2
2017-01-31T02:10:08.551Z,22.14
2017-01-31T02:10:36.548Z,22.15
2017-01-31T02:11:04.516Z,22.15
2017-01-31T02:11:32.405Z,22.15
2017-01-31T02:12:00.386Z,22.12
2017-01-31T02:12:28.366Z,22.18
2017-01-31T02:12:56.252Z,22.14
2017-01-31T02:13:24.191Z,22.15
2017-01-31T02:13:52.013Z,22.17
2017-01-31T02:14:19.900Z,22.21
2017-01-31T02:14:47.804Z,22.17
2017-01-31T02:15:16.560Z,22.15
2017-01-31T02:15:45.303Z,22.17
2017-01-31T02:16:13.304Z,22.14
2017-01-31T02:16:41.178Z,22.17
2017-01-31T02:17:09.152Z,22.12
2017-01-31T02:17:37.190Z,22.17
2017-01-31T02:18:04.993Z,22.2
2017-01-31T02:18:32.808Z,22.2
2017-01-31T02:19:02.365Z,22.17
2017-01-31T02:19:30.956Z,22.12
2017-01-31T02:19:59.769Z,22.17
2017-01-31T02:20:27.776Z,22.17
2017-01-31T02:20:55.600Z,22.18
2017-01-31T02:21:23.418Z,22.18
2017-01-31T02:21:51.323Z,22.15
2017-01-31T02:22:19.200Z,22.12
2017-01-31T02:22:47.971Z,22.22
2017-01-31T02:23:15.678Z,22.03
2017-01-31T02:23:43.547Z,22.17
2017-01-31T02:24:11.569Z,22.15
2017-01-31T02:24:39.524Z,22.2
2017-01-31T02:25:07.408Z,22.12
2017-01-31T02:25:36.155Z,22.15
2017-01-31T02:26:04.032Z,22.21
2017-01-31T02:26:32.663Z,22.12
2017-01-31T02:27:01.434Z,22.12
2017-01-31T02:27:29.399Z,22.18
2017-01-31T02:27:58.199Z,22.07
2017-01-31T02:28:26.154Z,22.05
2017-01-31T02:28:54.809Z,22.1
2017-01-31T02:29:22.695Z,22.14
2017-01-31T02:29:50.918Z,22.05
2017-01-31T02:30:18.788Z,22.1
2017-01-31T02:30:46.804Z,22.09
2017-01-31T02:31:14.382Z,22.15
2017-01-31T02:31:42.246Z,22.18
2017-01-31T02:32:10.204Z,22.05
2017-01-31T02:32:38.126Z,22.18
2017-01-31T02:33:06.946Z,22.12
2017-01-31T02:33:34.840Z,22.07
2017-01-31T02:34:02.827Z,22.14
2017-01-31T02:34:30.705Z,22.14
2017-01-31T02:34:58.512Z,22.03
2017-01-31T02:35:26.448Z,22.05
2017-01-31T02:35:54.360Z,22.09
2017-01-31T02:36:22.174Z,22.07
2017-01-31T02:36:49.950Z,22.1
2017-01-31T02:37:17.560Z,22.1
2017-01-31T02:37:46.242Z,22.09
2017-01-31T02:38:14.978Z,22.09
2017-01-31T02:38:42.893Z,22.07
2017-01-31T02:39:11.653Z,22.1
2017-01-31T02:39:39.500Z,22.1
2017-01-31T02:40:08.302Z,22.12
2017-01-31T02:40:36.257Z,22.07
2017-01-31T02:41:04.233Z,22.05
2017-01-31T02:41:32.226Z,22.17
2017-01-31T02:42:00.106Z,22.15
2017-01-31T02:42:28.660Z,22.18
2017-01-31T02:42:56.532Z,22.17
2017-01-31T02:43:24.492Z,22.17
2017-01-31T02:43:52.355Z,22.18
2017-01-31T02:44:20.240Z,22.18
2017-01-31T02:44:48.175Z,22.22
2017-01-31T02:45:16.196Z,22.24
2017-01-31T02:45:45.030Z,22.21
2017-01-31T02:46:12.952Z,22.25
2017-01-31T02:46:40.952Z,22.15
2017-01-31T02:47:47.125Z,22.2
2017-01-31T02:48:15.102Z,22.21
2017-01-31T02:48:43.775Z,22.17
2017-01-31T02:49:11.549Z,22.21
2017-01-31T02:49:39.283Z,22.24
2017-01-31T02:50:08.035Z,22.21
2017-01-31T02:50:36.071Z,22.09
2017-01-31T02:51:03.968Z,22.1
2017-01-31T02:51:32.750Z,22.17
2017-01-31T02:52:01.517Z,22.17
2017-01-31T02:52:29.544Z,22.14
2017-01-31T02:52:58.242Z,22.17
2017-01-31T02:53:26.122Z,22.18
2017-01-31T02:53:54.032Z,22.12
2017-01-31T02:54:22.792Z,22.18
2017-01-31T02:54:50.743Z,22.17
2017-01-31T02:55:19.529Z,22.17
2017-01-31T02:55:47.488Z,22.22
2017-01-31T02:56:15.370Z,22.14
2017-01-31T02:56:43.398Z,22.22
2017-01-31T02:57:11.394Z,22.14
2017-01-31T02:57:39.180Z,22.14
2017-01-31T02:58:07.065Z,22.17
2017-01-31T02:58:35.814Z,22.12
2017-01-31T02:59:03.760Z,22.03
2017-01-31T02:59:31.749Z,22.12
2017-01-31T02:59:59.747Z,22.05
2017-01-31T03:00:27.538Z,22.1
2017-01-31T03:00:55.535Z,22.15
2017-01-31T03:01:23.492Z,22.12
2017-01-31T03:01:51.376Z,22.09
2017-01-31T03:02:19.250Z,22.14
2017-01-31T03:02:47.118Z,22.12
2017-01-31T03:03:15.054Z,22.12
2017-01-31T03:03:43.007Z,22.07
2017-01-31T03:04:10.700Z,22.09
2017-01-31T03:04:39.396Z,22.07
2017-01-31T03:05:07.248Z,22.06
2017-01-31T03:05:36.238Z,22.09
2017-01-31T03:06:04.839Z,22.09
2017-01-31T03:06:32.808Z,22.12
2017-01-31T03:07:00.741Z,22.07
2017-01-31T03:07:28.616Z,22.12
2017-01-31T03:07:57.358Z,22.02
2017-01-31T03:08:26.029Z,22.1
2017-01-31T03:08:53.720Z,22.12
2017-01-31T03:09:21.670Z,22.09
2017-01-31T03:09:49.611Z,22.12
2017-01-31T03:10:19.036Z,22.1
2017-01-31T03:10:46.905Z,22.07
2017-01-31T03:11:14.687Z,22.12
2017-01-31T03:11:44.287Z,22.17
2017-01-31T03:12:12.249Z,22.21
2017-01-31T03:12:40.213Z,22.18
2017-01-31T03:13:08.900Z,22.2
2017-01-31T03:13:36.694Z,22.22
2017-01-31T03:14:04.587Z,22.15
2017-01-31T03:14:33.318Z,22.14
2017-01-31T03:15:01.318Z,22.03
2017-01-31T03:15:29.918Z,22.17
2017-01-31T03:15:57.875Z,22.12
2017-01-31T03:16:26.449Z,22.14
2017-01-31T03:16:54.169Z,22.2
2017-01-31T03:17:21.927Z,22.24
2017-01-31T03:17:49.836Z,22.15
2017-01-31T03:18:18.339Z,22.12
2017-01-31T03:18:46.184Z,22.12
2017-01-31T03:19:14.113Z,22.1
2017-01-31T03:19:42.854Z,22.1
2017-01-31T03:20:10.661Z,22.09
2017-01-31T03:20:38.569Z,22.06
2017-01-31T03:21:06.542Z,22.06
2017-01-31T03:21:34.481Z,22.07
2017-01-31T03:22:03.231Z,22.09
2017-01-31T03:22:31.197Z,22.1
2017-01-31T03:22:59.946Z,22.1
2017-01-31T03:23:27.736Z,22.07
2017-01-31T03:23:55.589Z,22.09
2017-01-31T03:24:23.534Z,22.09
2017-01-31T03:24:53.096Z,22.09
2017-01-31T03:25:21.857Z,22.12
2017-01-31T03:25:49.673Z,22.1
2017-01-31T03:26:55.938Z,22.06
2017-01-31T03:27:24.606Z,22.05
2017-01-31T03:27:52.486Z,22.05
2017-01-31T03:28:21.240Z,22.06
2017-01-31T03:28:50.033Z,22.07
2017-01-31T03:29:19.573Z,22.05
2017-01-31T03:29:47.461Z,22.09
2017-01-31T03:30:15.354Z,22.07
2017-01-31T03:30:43.240Z,22.06
2017-01-31T03:31:11.129Z,22.09
2017-01-31T03:31:38.974Z,22.06
2017-01-31T03:32:06.885Z,22.02
2017-01-31T03:32:34.796Z,22.07
2017-01-31T03:33:02.606Z,22.06
2017-01-31T03:33:30.303Z,22.02
2017-01-31T03:33:58.241Z,21.99
2017-01-31T03:34:26.252Z,22.05
2017-01-31T03:34:54.018Z,22.02
2017-01-31T03:35:21.820Z,22.05
2017-01-31T03:35:50.018Z,22.03
2017-01-31T03:36:17.917Z,21.98
2017-01-31T03:36:45.879Z,22.02
2017-01-31T03:37:13.759Z,22.03
2017-01-31T03:37:41.644Z,22.03
2017-01-31T03:38:09.675Z,22.02
2017-01-31T03:38:37.668Z,22.02
2017-01-31T03:39:05.664Z,21.99
2017-01-31T03:39:35.227Z,21.98
2017-01-31T03:40:03.043Z,21.99
2017-01-31T03:40:30.924Z,21.94
2017-01-31T03:40:58.723Z,21.98
2017-01-31T03:41:26.697Z,22.02
2017-01-31T03:41:54.654Z,21.99
2017-01-31T03:42:22.582Z,21.96
2017-01-31T03:42:50.452Z,22.05
2017-01-31T03:43:19.200Z,21.98
2017-01-31T03:43:47.165Z,22
2017-01-31T03:44:15.655Z,22
2017-01-31T03:44:43.593Z,21.96
2017-01-31T03:45:11.580Z,21.98
2017-01-31T03:45:40.338Z,21.98
2017-01-31T03:46:08.264Z,21.99
2017-01-31T03:46:36.220Z,21.94
2017-01-31T03:47:04.169Z,22.05
2017-01-31T03:47:32.753Z,21.99
2017-01-31T03:48:00.719Z,22.03
2017-01-31T03:48:28.587Z,22.06
2017-01-31T03:48:56.614Z,22.03
2017-01-31T03:49:24.549Z,22
2017-01-31T03:49:52.321Z,21.99
2017-01-31T03:50:20.892Z,22.05
2017-01-31T03:50:48.816Z,21.91
2017-01-31T03:51:17.720Z,21.94
2017-01-31T03:51:45.602Z,21.94
2017-01-31T03:52:15.073Z,21.94
2017-01-31T03:52:42.865Z,21.99
2017-01-31T03:53:10.750Z,21.98
2017-01-31T03:53:38.679Z,21.99
2017-01-31T03:54:06.677Z,21.91
2017-01-31T03:54:34.482Z,21.98
2017-01-31T03:55:02.458Z,21.94
2017-01-31T03:55:30.166Z,21.94
2017-01-31T03:55:57.975Z,21.94
2017-01-31T03:56:25.914Z,22
2017-01-31T03:56:53.915Z,22
2017-01-31T03:57:21.797Z,21.88
2017-01-31T03:57:49.727Z,21.94
2017-01-31T03:58:17.564Z,21.94
2017-01-31T03:58:45.337Z,21.92
2017-01-31T03:59:13.311Z,21.94
2017-01-31T03:59:41.209Z,21.94
2017-01-31T04:00:09.095Z,21.91
2017-01-31T04:00:36.944Z,21.96
2017-01-31T04:01:04.889Z,21.9
2017-01-31T04:01:32.851Z,21.96
2017-01-31T04:02:00.727Z,21.94
2017-01-31T04:02:28.689Z,21.96
2017-01-31T04:02:56.623Z,21.91
2017-01-31T04:03:24.657Z,21.94
2017-01-31T04:03:52.463Z,21.91
2017-01-31T04:04:20.349Z,22
2017-01-31T04:04:48.344Z,21.96
2017-01-31T04:05:54.600Z,21.98
2017-01-31T04:06:22.826Z,21.96
2017-01-31T04:06:50.789Z,21.94
2017-01-31T04:07:18.666Z,21.92
2017-01-31T04:07:46.210Z,22
2017-01-31T04:08:14.969Z,21.99
2017-01-31T04:08:42.938Z,21.98
2017-01-31T04:09:10.732Z,21.99
2017-01-31T04:09:38.537Z,22.02
2017-01-31T04:10:06.520Z,21.99
2017-01-31T04:10:34.458Z,22.03
2017-01-31T04:11:02.370Z,22
2017-01-31T04:11:30.251Z,22.02
2017-01-31T04:11:58.153Z,22
2017-01-31T04:12:26.031Z,21.98
2017-01-31T04:12:54.688Z,22.03
2017-01-31T04:13:22.680Z,21.98
2017-01-31T04:13:50.460Z,22.07
2017-01-31T04:14:18.438Z,22.05
2017-01-31T04:14:46.301Z,22.06
2017-01-31T04:15:14.195Z,22.07
2017-01-31T04:15:42.070Z,22.07
2017-01-31T04:16:10.040Z,22.06
2017-01-31T04:16:37.919Z,22.06
2017-01-31T04:17:05.866Z,22.06
2017-01-31T04:17:33.683Z,22.09
2017-01-31T04:18:01.587Z,22.06
2017-01-31T04:18:29.556Z,22.06
2017-01-31T04:18:57.367Z,22.02
2017-01-31T04:19:25.244Z,22.03
2017-01-31T04:19:53.147Z,22.05
2017-01-31T04:20:21.114Z,22.05
2017-01-31T04:20:49.080Z,22.06
2017-01-31T04:21:17.198Z,22.05
2017-01-31T04:21:44.973Z,22.02
2017-01-31T04:22:13.733Z,21.99
2017-01-31T04:22:41.795Z,21.92
2017-01-31T04:23:09.672Z,21.92
2017-01-31T04:23:37.436Z,21.98
2017-01-31T04:24:05.150Z,21.92
2017-01-31T04:24:33.810Z,21.96
2017-01-31T04:25:01.832Z,21.98
2017-01-31T04:25:29.619Z,21.92
2017-01-31T04:25:57.390Z,21.99
2017-01-31T04:26:25.368Z,21.98
2017-01-31T04:26:54.027Z,21.91
2017-01-31T04:27:22.685Z,21.82
2017-01-31T04:27:50.707Z,21.83
2017-01-31T04:28:18.637Z,21.82
2017-01-31T04:28:47.376Z,21.8
2017-01-31T04:29:16.035Z,21.82
2017-01-31T04:29:43.953Z,21.94
2017-01-31T04:30:14.311Z,21.88
2017-01-31T04:30:42.992Z,21.86
2017-01-31T04:31:11.681Z,21.98
2017-01-31T04:31:39.555Z,21.9
2017-01-31T04:32:07.534Z,21.88
2017-01-31T04:32:35.552Z,21.9
2017-01-31T04:33:03.377Z,21.92
2017-01-31T04:33:31.188Z,21.86
2017-01-31T04:33:59.053Z,21.77
2017-01-31T04:34:26.936Z,21.75
2017-01-31T04:34:54.834Z,21.79
2017-01-31T04:35:23.570Z,21.82
2017-01-31T04:35:51.573Z,21.88
2017-01-31T04:36:19.796Z,21.84
2017-01-31T04:36:47.822Z,21.82
2017-01-31T04:37:16.622Z,21.86
2017-01-31T04:37:44.489Z,21.84
2017-01-31T04:38:12.473Z,21.83
2017-01-31T04:38:40.371Z,21.82
2017-01-31T04:39:08.258Z,21.86
2017-01-31T04:39:36.194Z,21.83
2017-01-31T04:40:04.059Z,21.79
2017-01-31T04:40:31.842Z,21.8
2017-01-31T04:40:59.713Z,21.77
2017-01-31T04:41:29.274Z,21.8
2017-01-31T04:41:57.031Z,21.83
2017-01-31T04:42:24.968Z,21.8
2017-01-31T04:42:52.874Z,21.77
2017-01-31T04:43:20.676Z,21.75
2017-01-31T04:43:48.673Z,21.71
2017-01-31T04:44:54.754Z,21.74
2017-01-31T04:45:22.730Z,21.83
2017-01-31T04:45:51.391Z,21.79
2017-01-31T04:46:19.262Z,21.88
2017-01-31T04:46:47.168Z,21.69
2017-01-31T04:47:15.043Z,21.83
2017-01-31T04:47:42.838Z,21.71
2017-01-31T04:48:10.728Z,21.72
2017-01-31T04:48:38.620Z,21.75
2017-01-31T04:49:06.602Z,21.77
2017-01-31T04:49:35.147Z,21.84
2017-01-31T04:50:03.062Z,21.74
2017-01-31T04:50:30.949Z,21.86
2017-01-31T04:50:58.774Z,21.82
2017-01-31T04:51:27.508Z,21.79
2017-01-31T04:51:55.616Z,21.82
2017-01-31T04:52:23.433Z,21.71
2017-01-31T04:52:52.086Z,21.77
2017-01-31T04:53:20.006Z,21.72
2017-01-31T04:53:47.945Z,21.79
2017-01-31T04:54:16.625Z,21.77
2017-01-31T04:54:45.307Z,21.71
2017-01-31T04:55:13.097Z,21.72
2017-01-31T04:55:40.891Z,21.77
2017-01-31T04:56:08.920Z,21.69
2017-01-31T04:56:36.917Z,21.77
2017-01-31T04:57:04.841Z,21.77
2017-01-31T04:57:32.677Z,21.77
2017-01-31T04:58:01.427Z,21.71
2017-01-31T04:58:31.037Z,21.72
2017-01-31T04:58:59.022Z,21.75
2017-01-31T04:59:27.649Z,21.71
2017-01-31T04:59:55.592Z,21.65
2017-01-31T05:00:23.477Z,21.71
2017-01-31T05:00:51.131Z,21.72
2017-01-31T05:01:18.819Z,21.74
2017-01-31T05:01:47.481Z,21.75
2017-01-31T05:02:15.393Z,21.64
2017-01-31T05:02:44.137Z,21.72
2017-01-31T05:03:12.141Z,21.68
2017-01-31T05:03:39.947Z,21.68
2017-01-31T05:04:07.939Z,21.75
2017-01-31T05:04:35.801Z,21.65
2017-01-31T05:05:04.519Z,21.72
2017-01-31T05:05:32.235Z,21.58
2017-01-31T05:06:01.802Z,21.67
2017-01-31T05:06:29.951Z,21.67
2017-01-31T05:06:57.863Z,21.75
2017-01-31T05:07:26.615Z,21.68
2017-01-31T05:07:54.340Z,21.64
2017-01-31T05:08:22.244Z,21.65
2017-01-31T05:08:50.983Z,21.72
2017-01-31T05:09:18.871Z,21.79
2017-01-31T05:09:46.712Z,21.65
2017-01-31T05:10:14.538Z,21.59
2017-01-31T05:10:42.366Z,21.72
2017-01-31T05:11:10.381Z,21.68
2017-01-31T05:11:38.348Z,21.71
2017-01-31T05:12:06.186Z,21.68
2017-01-31T05:12:34.936Z,21.72
2017-01-31T05:13:02.781Z,21.64
2017-01-31T05:13:30.805Z,21.68
2017-01-31T05:13:58.750Z,21.75
2017-01-31T05:14:26.704Z,21.71
2017-01-31T05:14:54.482Z,21.69
2017-01-31T05:15:23.207Z,21.62
2017-01-31T05:15:51.076Z,21.68
2017-01-31T05:16:18.780Z,21.72
2017-01-31T05:16:47.499Z,21.67
2017-01-31T05:17:15.266Z,21.69
2017-01-31T05:17:43.120Z,21.74
2017-01-31T05:18:11.096Z,21.65
2017-01-31T05:18:39.091Z,21.67
2017-01-31T05:19:07.234Z,21.72
2017-01-31T05:19:35.330Z,21.68
2017-01-31T05:20:04.161Z,21.69
2017-01-31T05:20:32.230Z,21.72
2017-01-31T05:21:00.218Z,21.65
2017-01-31T05:21:28.997Z,21.67
2017-01-31T05:21:57.823Z,21.67
2017-01-31T05:22:25.741Z,21.67
2017-01-31T05:22:54.491Z,21.64
2017-01-31T05:24:01.544Z,21.72
2017-01-31T05:24:29.354Z,21.71
2017-01-31T05:24:58.117Z,21.64
2017-01-31T05:25:26.106Z,21.64
2017-01-31T05:25:54.028Z,21.67
2017-01-31T05:26:22.027Z,21.68
2017-01-31T05:26:51.578Z,21.67
2017-01-31T05:27:19.654Z,21.68
2017-01-31T05:27:47.684Z,21.71
2017-01-31T05:28:15.637Z,21.67
2017-01-31T05:28:43.628Z,21.72
2017-01-31T05:29:11.639Z,21.69
2017-01-31T05:29:39.731Z,21.72
2017-01-31T05:30:08.560Z,21.62
2017-01-31T05:30:37.306Z,21.65
2017-01-31T05:31:06.191Z,21.71
2017-01-31T05:31:34.245Z,21.65
2017-01-31T05:32:02.252Z,21.65
2017-01-31T05:32:30.275Z,21.68
2017-01-31T05:32:58.350Z,21.64
2017-01-31T05:33:26.498Z,21.69
2017-01-31T05:33:54.432Z,21.67
2017-01-31T05:34:22.446Z,21.62
2017-01-31T05:34:50.426Z,21.62
2017-01-31T05:35:18.448Z,21.64
2017-01-31T05:35:46.522Z,21.65
2017-01-31T05:36:14.612Z,21.67
2017-01-31T05:36:42.536Z,21.65
2017-01-31T05:37:10.864Z,21.61
2017-01-31T05:37:38.914Z,21.58
2017-01-31T05:38:06.915Z,21.62
2017-01-31T05:38:34.757Z,21.68
2017-01-31T05:39:02.820Z,21.68
2017-01-31T05:39:30.811Z,21.68
2017-01-31T05:39:58.744Z,21.62
2017-01-31T05:40:28.280Z,21.65
2017-01-31T05:40:56.343Z,21.68
2017-01-31T05:41:24.273Z,21.58
2017-01-31T05:41:52.239Z,21.69
2017-01-31T05:42:20.249Z,21.67
2017-01-31T05:42:48.243Z,21.56
2017-01-31T05:43:16.248Z,21.54
2017-01-31T05:43:45.159Z,21.59
2017-01-31T05:44:13.963Z,21.67
2017-01-31T05:44:41.965Z,21.53
2017-01-31T05:45:10.656Z,21.59
2017-01-31T05:45:39.526Z,21.67
2017-01-31T05:46:07.541Z,21.59
2017-01-31T05:46:36.386Z,21.56
2017-01-31T05:47:04.394Z,21.58
2017-01-31T05:47:33.264Z,21.53
2017-01-31T05:48:02.871Z,21.56
2017-01-31T05:48:30.766Z,21.71
2017-01-31T05:48:58.744Z,21.59
2017-01-31T05:49:27.446Z,21.67
2017-01-31T05:49:55.374Z,21.61
2017-01-31T05:50:24.089Z,21.56
2017-01-31T05:50:52.084Z,21.56
2017-01-31T05:51:20.110Z,21.58
2017-01-31T05:51:48.172Z,21.53
2017-01-31T05:52:16.325Z,21.56
2017-01-31T05:52:44.456Z,21.58
2017-01-31T05:53:12.507Z,21.53
2017-01-31T05:53:40.393Z,21.58
2017-01-31T05:54:08.271Z,21.58
2017-01-31T05:54:37.938Z,21.58
2017-01-31T05:55:06.007Z,21.56
2017-01-31T05:55:34.703Z,21.52
2017-01-31T05:56:02.660Z,21.56
2017-01-31T05:56:31.564Z,21.59
2017-01-31T05:57:00.537Z,21.58
2017-01-31T05:57:28.248Z,21.61
2017-01-31T05:57:56.824Z,21.58
2017-01-31T05:58:24.961Z,21.53
2017-01-31T05:58:53.053Z,21.67
2017-01-31T05:59:21.021Z,21.56
2017-01-31T05:59:49.004Z,21.59
2017-01-31T06:00:16.901Z,21.64
2017-01-31T06:00:44.980Z,21.62
2017-01-31T06:01:13.045Z,21.69
2017-01-31T06:01:41.138Z,21.58
2017-01-31T06:02:09.014Z,21.58
2017-01-31T06:03:15.340Z,21.58
2017-01-31T06:03:43.420Z,21.64
2017-01-31T06:04:12.165Z,21.56
2017-01-31T06:04:40.156Z,21.59
2017-01-31T06:05:08.151Z,21.64
2017-01-31T06:05:36.844Z,21.54
2017-01-31T06:06:04.830Z,21.59
2017-01-31T06:06:32.915Z,21.59
2017-01-31T06:07:00.955Z,21.58
2017-01-31T06:07:29.090Z,21.62
2017-01-31T06:07:57.072Z,21.62
2017-01-31T06:08:25.171Z,21.56
2017-01-31T06:08:53.265Z,21.56
2017-01-31T06:09:21.318Z,21.54
2017-01-31T06:09:50.061Z,21.56
2017-01-31T06:10:18.935Z,21.61